Terminal Aerodrome Forecast
Issued by NWS Wichita, KS

Home | Current Version | Previous Version | Text Only | Print | Product List | Glossary Off
Versions: 1 2 3 4 5 6 7 8 9 10 11 12 13 14 15 16 17 18 19 20

767
FTUS43 KICT 211441 AAA
TAFICT
TAF AMD
KICT 211441Z 2115/2212 18020G29KT P6SM BKN015
     FM211630 19019G28KT P6SM VCSH SCT015 BKN025
     FM211930 21014KT P6SM VCTS BKN030CB
     FM212200 31016G25KT P6SM SHRA VCTS BKN035CB
     FM220000 35012KT P6SM BKN045
     FM220300 35014KT P6SM BKN150=

USA.gov is the U.S. government's official web portal to all federal, state and local government web resources and services.